sensor_id;sensor_type;location;lat;lon;timestamp;pressure;altitude;pressure_sealevel;temperature;humidity
9189;BME280;34313;50.780;6.084;2023-01-30T00:00:13;99975.47;;;3.03;100.00
9189;BME280;34313;50.780;6.084;2023-01-30T00:02:39;99962.53;;;3.00;100.00
9189;BME280;34313;50.780;6.084;2023-01-30T00:05:04;99955.66;;;2.96;100.00
9189;BME280;34313;50.780;6.084;2023-01-30T00:07:30;99945.09;;;3.03;100.00
9189;BME280;34313;50.780;6.084;2023-01-30T00:09:55;99917.28;;;3.06;100.00
9189;BME280;34313;50.780;6.084;2023-01-30T00:12:21;99912.94;;;3.06;100.00
9189;BME280;34313;50.780;6.084;2023-01-30T00:14:46;99912.91;;;3.08;100.00
9189;BME280;34313;50.780;6.084;2023-01-30T00:17:11;99897.16;;;3.14;100.00
9189;BME280;34313;50.780;6.084;2023-01-30T00:19:37;99892.94;;;3.07;100.00
9189;BME280;34313;50.780;6.084;2023-01-30T00:22:02;99889.47;;;3.08;100.00
9189;BME280;34313;50.780;6.084;2023-01-30T00:24:30;99902.41;;;3.11;100.00
9189;BME280;34313;50.780;6.084;2023-01-30T00:26:55;99897.28;;;3.08;100.00
9189;BME280;34313;50.780;6.084;2023-01-30T00:29:21;99883.28;;;3.12;100.00
9189;BME280;34313;50.780;6.084;2023-01-30T00:31:49;99883.28;;;3.12;100.00
9189;BME280;34313;50.780;6.084;2023-01-30T00:34:14;99882.38;;;3.14;100.00
9189;BME280;34313;50.780;6.084;2023-01-30T00:36:40;99877.13;;;3.16;100.00
9189;BME280;34313;50.780;6.084;2023-01-30T00:39:05;99892.63;;;3.22;100.00
9189;BME280;34313;50.780;6.084;2023-01-30T00:41:30;99904.78;;;3.21;100.00
9189;BME280;34313;50.780;6.084;2023-01-30T00:44:16;99888.38;;;3.18;100.00
9189;BME280;34313;50.780;6.084;2023-01-30T00:47:00;99883.97;;;3.21;100.00
9189;BME280;34313;50.780;6.084;2023-01-30T00:49:33;99879.59;;;3.22;100.00
9189;BME280;34313;50.780;6.084;2023-01-30T00:51:59;99867.47;;;3.21;100.00
9189;BME280;34313;50.780;6.084;2023-01-30T00:54:24;99874.38;;;3.22;100.00
9189;BME280;34313;50.780;6.084;2023-01-30T00:56:49;99882.31;;;3.17;100.00
9189;BME280;34313;50.780;6.084;2023-01-30T00:59:15;99879.75;;;3.16;100.00
9189;BME280;34313;50.780;6.084;2023-01-30T01:01:40;99882.25;;;3.19;100.00
9189;BME280;34313;50.780;6.084;2023-01-30T01:04:06;99860.56;;;3.18;100.00
9189;BME280;34313;50.780;6.084;2023-01-30T01:06:33;99849.38;;;3.15;100.00
9189;BME280;34313;50.780;6.084;2023-01-30T01:08:58;99851.84;;;3.21;100.00
9189;BME280;34313;50.780;6.084;2023-01-30T01:11:24;99847.69;;;3.12;100.00
9189;BME280;34313;50.780;6.084;2023-01-30T01:13:53;99860.69;;;3.14;100.00
9189;BME280;34313;50.780;6.084;2023-01-30T01:16:20;99877.09;;;3.17;100.00
9189;BME280;34313;50.780;6.084;2023-01-30T01:18:46;99881.53;;;3.14;100.00
9189;BME280;34313;50.780;6.084;2023-01-30T01:21:12;99891.03;;;3.15;100.00
9189;BME280;34313;50.780;6.084;2023-01-30T01:23:37;99897.06;;;3.17;100.00
9189;BME280;34313;50.780;6.084;2023-01-30T01:26:03;99879.81;;;3.13;100.00
9189;BME280;34313;50.780;6.084;2023-01-30T01:28:28;99881.53;;;3.14;100.00
9189;BME280;34313;50.780;6.084;2023-01-30T01:30:53;99879.03;;;3.08;100.00
9189;BME280;34313;50.780;6.084;2023-01-30T01:33:19;99871.09;;;3.14;100.00
9189;BME280;34313;50.780;6.084;2023-01-30T01:35:44;99867.59;;;3.15;100.00
9189;BME280;34313;50.780;6.084;2023-01-30T01:38:12;99871.97;;;3.14;100.00
9189;BME280;34313;50.780;6.084;2023-01-30T01:40:37;99872.97;;;3.09;100.00
9189;BME280;34313;50.780;6.084;2023-01-30T01:43:23;99882.31;;;3.17;100.00
9189;BME280;34313;50.780;6.084;2023-01-30T01:46:14;99886.66;;;3.17;100.00
9189;BME280;34313;50.780;6.084;2023-01-30T01:48:51;99879.78;;;3.14;100.00
9189;BME280;34313;50.780;6.084;2023-01-30T01:51:23;99884.81;;;3.22;100.00
9189;BME280;34313;50.780;6.084;2023-01-30T01:54:07;99872.75;;;3.18;100.00
9189;BME280;34313;50.780;6.084;2023-01-30T01:56:34;99878.72;;;3.23;100.00
9189;BME280;34313;50.780;6.084;2023-01-30T01:59:10;99869.06;;;3.28;100.00
9189;BME280;34313;50.780;6.084;2023-01-30T02:01:38;99875.19;;;3.24;100.00
9189;BME280;34313;50.780;6.084;2023-01-30T02:04:05;99873.38;;;3.28;100.00
9189;BME280;34313;50.780;6.084;2023-01-30T02:06:34;99873.38;;;3.28;100.00
9189;BME280;34313;50.780;6.084;2023-01-30T02:09:06;99872.41;;;3.33;100.00
9189;BME280;34313;50.780;6.084;2023-01-30T02:14:28;99870.84;;;3.26;100.00
9189;BME280;34313;50.780;6.084;2023-01-30T02:16:54;99871.63;;;3.30;100.00
9189;BME280;34313;50.780;6.084;2023-01-30T02:27:47;99854.31;;;3.26;100.00
9189;BME280;34313;50.780;6.084;2023-01-30T02:33:29;99824.75;;;3.28;100.00
9189;BME280;34313;50.780;6.084;2023-01-30T02:43:50;99821.97;;;3.36;100.00
9189;BME280;34313;50.780;6.084;2023-01-30T02:46:24;99819.22;;;3.42;100.00
9189;BME280;34313;50.780;6.084;2023-01-30T02:49:01;99821.72;;;3.47;100.00
9189;BME280;34313;50.780;6.084;2023-01-30T02:51:31;99817.28;;;3.50;100.00
9189;BME280;34313;50.780;6.084;2023-01-30T02:53:58;99803.38;;;3.51;100.00
9189;BME280;34313;50.780;6.084;2023-01-30T02:56:24;99789.50;;;3.51;100.00
9189;BME280;34313;50.780;6.084;2023-01-30T02:59:08;99787.84;;;3.47;100.00
9189;BME280;34313;50.780;6.084;2023-01-30T03:02:09;99794.59;;;3.54;100.00
9189;BME280;34313;50.780;6.084;2023-01-30T03:16:02;99749.75;;;3.41;100.00
9189;BME280;34313;50.780;6.084;2023-01-30T03:18:29;99747.97;;;3.43;100.00
9189;BME280;34313;50.780;6.084;2023-01-30T03:20:54;99756.69;;;3.42;100.00
9189;BME280;34313;50.780;6.084;2023-01-30T03:23:20;99743.78;;;3.37;100.00
9189;BME280;34313;50.780;6.084;2023-01-30T03:25:46;99738.56;;;3.37;100.00
9189;BME280;34313;50.780;6.084;2023-01-30T03:28:15;99735.88;;;3.40;100.00
9189;BME280;34313;50.780;6.084;2023-01-30T03:30:42;99733.28;;;3.40;100.00
9189;BME280;34313;50.780;6.084;2023-01-30T03:33:08;99730.63;;;3.42;100.00
9189;BME280;34313;50.780;6.084;2023-01-30T03:35:33;99724.44;;;3.46;100.00
9189;BME280;34313;50.780;6.084;2023-01-30T03:37:58;99738.25;;;3.50;100.00
9189;BME280;34313;50.780;6.084;2023-01-30T03:40:24;99731.97;;;3.57;100.00
9189;BME280;34313;50.780;6.084;2023-01-30T03:42:50;99744.41;;;3.47;100.00
9189;BME280;34313;50.780;6.084;2023-01-30T03:45:15;99723.50;;;3.49;100.00
9189;BME280;34313;50.780;6.084;2023-01-30T03:47:40;99731.97;;;3.57;100.00
9189;BME280;34313;50.780;6.084;2023-01-30T03:50:06;99711.25;;;3.52;100.00
9189;BME280;34313;50.780;6.084;2023-01-30T03:52:34;99718.88;;;3.60;100.00
9189;BME280;34313;50.780;6.084;2023-01-30T03:54:59;99724.16;;;3.57;100.00
9189;BME280;34313;50.780;6.084;2023-01-30T03:57:24;99719.66;;;3.64;100.00
9189;BME280;34313;50.780;6.084;2023-01-30T03:59:50;99704.13;;;3.59;100.00
9189;BME280;34313;50.780;6.084;2023-01-30T04:02:15;99702.50;;;3.55;100.00
9189;BME280;34313;50.780;6.084;2023-01-30T04:04:45;99701.56;;;3.57;100.00
9189;BME280;34313;50.780;6.084;2023-01-30T04:07:10;99705.03;;;3.58;100.00
9189;BME280;34313;50.780;6.084;2023-01-30T04:09:35;99702.41;;;3.59;100.00
9189;BME280;34313;50.780;6.084;2023-01-30T04:12:01;99707.34;;;3.69;100.00
9189;BME280;34313;50.780;6.084;2023-01-30T04:14:26;99703.75;;;3.73;100.00
9189;BME280;34313;50.780;6.084;2023-01-30T04:16:51;99702.19;;;3.67;100.00
9189;BME280;34313;50.780;6.084;2023-01-30T04:19:17;99700.38;;;3.69;100.00
9189;BME280;34313;50.780;6.084;2023-01-30T04:21:42;99691.78;;;3.66;100.00
9189;BME280;34313;50.780;6.084;2023-01-30T04:24:07;99688.97;;;3.73;100.00
9189;BME280;34313;50.780;6.084;2023-01-30T04:26:33;99687.50;;;3.65;100.00
9189;BME280;34313;50.780;6.084;2023-01-30T04:28:58;99685.59;;;3.70;100.00
9189;BME280;34313;50.780;6.084;2023-01-30T04:31:23;99694.28;;;3.70;100.00
9189;BME280;34313;50.780;6.084;2023-01-30T04:33:49;99694.31;;;3.69;100.00
9189;BME280;34313;50.780;6.084;2023-01-30T04:36:14;99696.78;;;3.73;100.00
9189;BME280;34313;50.780;6.084;2023-01-30T04:38:39;99670.78;;;3.72;100.00
9189;BME280;34313;50.780;6.084;2023-01-30T04:41:05;99694.09;;;3.76;100.00
9189;BME280;34313;50.780;6.084;2023-01-30T04:43:31;99681.13;;;3.73;100.00
9189;BME280;34313;50.780;6.084;2023-01-30T04:45:56;99686.28;;;3.76;100.00
9189;BME280;34313;50.780;6.084;2023-01-30T04:48:23;99686.94;;;3.85;100.00
9189;BME280;34313;50.780;6.084;2023-01-30T04:50:50;99689.56;;;3.83;100.00
9189;BME280;34313;50.780;6.084;2023-01-30T04:53:17;99673.94;;;3.83;100.00
9189;BME280;34313;50.780;6.084;2023-01-30T04:55:44;99677.38;;;3.84;100.00
9189;BME280;34313;50.780;6.084;2023-01-30T04:58:09;99673.78;;;3.89;100.00
9189;BME280;34313;50.780;6.084;2023-01-30T05:00:34;99671.09;;;3.91;100.00
9189;BME280;34313;50.780;6.084;2023-01-30T05:03:00;99675.34;;;3.95;100.00
9189;BME280;34313;50.780;6.084;2023-01-30T05:05:26;99665.06;;;3.89;100.00
9189;BME280;34313;50.780;6.084;2023-01-30T05:07:51;99673.59;;;3.95;100.00
9189;BME280;34313;50.780;6.084;2023-01-30T05:10:17;99684.97;;;3.93;100.00
9189;BME280;34313;50.780;6.084;2023-01-30T05:12:43;99676.25;;;3.94;100.00
9189;BME280;34313;50.780;6.084;2023-01-30T05:15:09;99675.34;;;3.95;100.00
9189;BME280;34313;50.780;6.084;2023-01-30T05:17:35;99669.97;;;4.00;100.00
9189;BME280;34313;50.780;6.084;2023-01-30T05:20:01;99672.75;;;3.95;100.00
9189;BME280;34313;50.780;6.084;2023-01-30T05:22:27;99663.03;;;4.00;100.00
9189;BME280;34313;50.780;6.084;2023-01-30T05:24:52;99668.38;;;3.95;100.00
9189;BME280;34313;50.780;6.084;2023-01-30T05:27:17;99670.91;;;3.98;100.00
9189;BME280;34313;50.780;6.084;2023-01-30T05:29:43;99675.19;;;4.00;100.00
9189;BME280;34313;50.780;6.084;2023-01-30T05:32:16;99674.22;;;4.04;100.00
9189;BME280;34313;50.780;6.084;2023-01-30T05:34:42;99671.59;;;4.05;100.00
9189;BME280;34313;50.780;6.084;2023-01-30T05:37:07;99667.19;;;4.07;100.00
9189;BME280;34313;50.780;6.084;2023-01-30T05:39:33;99674.75;;;4.15;100.00
9189;BME280;34313;50.780;6.084;2023-01-30T05:41:58;99674.72;;;4.16;100.00
9189;BME280;34313;50.780;6.084;2023-01-30T05:44:23;99673.91;;;4.14;100.00
9189;BME280;34313;50.780;6.084;2023-01-30T05:46:49;99684.28;;;4.18;100.00
9189;BME280;34313;50.780;6.084;2023-01-30T05:49:14;99681.66;;;4.18;100.00
9189;BME280;34313;50.780;6.084;2023-01-30T05:51:39;99689.53;;;4.16;100.00
9189;BME280;34313;50.780;6.084;2023-01-30T05:54:05;99678.25;;;4.15;100.00
9189;BME280;34313;50.780;6.084;2023-01-30T05:56:30;99676.28;;;4.22;100.00
9189;BME280;34313;50.780;6.084;2023-01-30T05:58:58;99667.56;;;4.23;100.00
9189;BME280;34313;50.780;6.084;2023-01-30T06:01:24;99677.06;;;4.26;100.00
9189;BME280;34313;50.780;6.084;2023-01-30T06:03:50;99675.97;;;4.33;100.00
9189;BME280;34313;50.780;6.084;2023-01-30T06:06:16;99670.06;;;4.28;100.00
9189;BME280;34313;50.780;6.084;2023-01-30T06:08:41;99683.78;;;4.33;100.00
9189;BME280;34313;50.780;6.084;2023-01-30T06:11:09;99680.38;;;4.31;100.00
9189;BME280;34313;50.780;6.084;2023-01-30T06:13:35;99670.59;;;4.39;100.00
9189;BME280;34313;50.780;6.084;2023-01-30T06:16:01;99675.66;;;4.44;100.00
9189;BME280;34313;50.780;6.084;2023-01-30T06:18:27;99663.59;;;4.40;100.00
9189;BME280;34313;50.780;6.084;2023-01-30T06:20:53;99664.97;;;4.51;100.00
9189;BME280;34313;50.780;6.084;2023-01-30T06:23:19;99671.94;;;4.52;100.00
9189;BME280;34313;50.780;6.084;2023-01-30T06:25:46;99660.44;;;4.58;100.00
9189;BME280;34313;50.780;6.084;2023-01-30T06:28:12;99660.47;;;4.57;100.00
9189;BME280;34313;50.780;6.084;2023-01-30T06:30:38;99669.81;;;4.64;100.00
9189;BME280;34313;50.780;6.084;2023-01-30T06:33:04;99674.28;;;4.60;100.00
9189;BME280;34313;50.780;6.084;2023-01-30T06:35:29;99701.09;;;4.65;100.00
9189;BME280;34313;50.780;6.084;2023-01-30T06:37:54;99699.13;;;4.73;100.00
9189;BME280;34313;50.780;6.084;2023-01-30T06:40:20;99699.75;;;4.80;100.00
9189;BME280;34313;50.780;6.084;2023-01-30T06:42:46;99684.06;;;4.82;100.00
9189;BME280;34313;50.780;6.084;2023-01-30T06:45:16;99683.91;;;4.86;100.00
9189;BME280;34313;50.780;6.084;2023-01-30T06:47:47;99685.47;;;4.92;100.00
9189;BME280;34313;50.780;6.084;2023-01-30T06:50:13;99686.22;;;4.96;100.00
9189;BME280;34313;50.780;6.084;2023-01-30T06:52:43;99674.72;;;5.01;100.00
9189;BME280;34313;50.780;6.084;2023-01-30T06:55:10;99676.28;;;5.07;100.00
9189;BME280;34313;50.780;6.084;2023-01-30T06:57:36;99681.34;;;5.11;100.00
9189;BME280;34313;50.780;6.084;2023-01-30T07:00:04;99692.47;;;5.18;100.00
9189;BME280;34313;50.780;6.084;2023-01-30T07:02:30;99687.19;;;5.20;100.00
9189;BME280;34313;50.780;6.084;2023-01-30T07:04:58;99698.25;;;5.28;100.00
9189;BME280;34313;50.780;6.084;2023-01-30T07:07:24;99702.50;;;5.30;100.00
9189;BME280;34313;50.780;6.084;2023-01-30T07:09:49;99688.50;;;5.33;100.00
9189;BME280;34313;50.780;6.084;2023-01-30T07:12:14;99696.16;;;5.38;100.00
9189;BME280;34313;50.780;6.084;2023-01-30T07:14:40;99683.84;;;5.41;100.00
9189;BME280;34313;50.780;6.084;2023-01-30T07:17:05;99690.41;;;5.53;100.00
9189;BME280;34313;50.780;6.084;2023-01-30T07:19:30;99698.22;;;5.55;100.00
9189;BME280;34313;50.780;6.084;2023-01-30T07:21:56;99698.31;;;5.52;100.00
9189;BME280;34313;50.780;6.084;2023-01-30T07:24:21;99705.31;;;5.51;100.00
9189;BME280;34313;50.780;6.084;2023-01-30T07:26:47;99699.06;;;5.55;100.00
9189;BME280;34313;50.780;6.084;2023-01-30T07:29:13;99687.94;;;5.48;100.00
9189;BME280;34313;50.780;6.084;2023-01-30T07:31:38;99692.75;;;5.61;100.00
9189;BME280;34313;50.780;6.084;2023-01-30T07:34:04;99692.16;;;5.78;100.00
9189;BME280;34313;50.780;6.084;2023-01-30T07:36:29;99682.50;;;5.80;100.00
9189;BME280;34313;50.780;6.084;2023-01-30T07:38:58;99693.09;;;5.77;100.00
9189;BME280;34313;50.780;6.084;2023-01-30T07:41:23;99692.41;;;5.72;100.00
9189;BME280;34313;50.780;6.084;2023-01-30T07:43:49;99717.44;;;5.79;100.00
9189;BME280;34313;50.780;6.084;2023-01-30T07:46:14;99700.13;;;5.75;100.00
9189;BME280;34313;50.780;6.084;2023-01-30T07:48:39;99724.19;;;5.84;100.00
9189;BME280;34313;50.780;6.084;2023-01-30T07:51:05;99720.41;;;5.93;100.00
9189;BME280;34313;50.780;6.084;2023-01-30T07:53:30;99726.56;;;5.91;100.00
9189;BME280;34313;50.780;6.084;2023-01-30T07:55:56;99727.31;;;5.96;100.00
9189;BME280;34313;50.780;6.084;2023-01-30T07:58:21;99724.78;;;5.93;100.00
9189;BME280;34313;50.780;6.084;2023-01-30T08:00:46;99723.63;;;6.01;100.00
9189;BME280;34313;50.780;6.084;2023-01-30T08:03:13;99731.53;;;6.00;100.00
9189;BME280;34313;50.780;6.084;2023-01-30T08:05:39;99739.00;;;6.11;100.00
9189;BME280;34313;50.780;6.084;2023-01-30T08:08:04;99740.81;;;6.09;100.00
9189;BME280;34313;50.780;6.084;2023-01-30T08:10:33;99740.69;;;6.12;100.00
9189;BME280;34313;50.780;6.084;2023-01-30T08:12:58;99739.59;;;6.19;100.00
9189;BME280;34313;50.780;6.084;2023-01-30T08:15:23;99744.72;;;6.20;100.00
9189;BME280;34313;50.780;6.084;2023-01-30T08:17:54;99753.13;;;6.30;100.00
9189;BME280;34313;50.780;6.084;2023-01-30T08:20:20;99741.84;;;6.28;100.00
9189;BME280;34313;50.780;6.084;2023-01-30T08:22:45;99753.91;;;6.32;100.00
9189;BME280;34313;50.780;6.084;2023-01-30T08:25:11;99740.41;;;6.43;100.00
9189;BME280;34313;50.780;6.084;2023-01-30T08:27:36;99748.63;;;6.57;100.00
9189;BME280;34313;50.780;6.084;2023-01-30T08:30:02;99740.69;;;6.59;100.00
9189;BME280;34313;50.780;6.084;2023-01-30T08:32:27;99750.22;;;6.61;100.00
9189;BME280;34313;50.780;6.084;2023-01-30T08:34:53;99751.34;;;6.54;100.00
9189;BME280;34313;50.780;6.084;2023-01-30T08:37:18;99740.16;;;6.51;100.00
9189;BME280;34313;50.780;6.084;2023-01-30T08:39:43;99744.34;;;6.55;100.00
9189;BME280;34313;50.780;6.084;2023-01-30T08:42:09;99728.13;;;6.45;100.00
9189;BME280;34313;50.780;6.084;2023-01-30T08:44:34;99741.09;;;6.48;100.00
9189;BME280;34313;50.780;6.084;2023-01-30T08:46:59;99741.72;;;6.55;100.00
9189;BME280;34313;50.780;6.084;2023-01-30T08:49:25;99754.94;;;6.52;100.00
9189;BME280;34313;50.780;6.084;2023-01-30T08:51:50;99744.59;;;6.49;100.00
9189;BME280;34313;50.780;6.084;2023-01-30T08:54:15;99761.53;;;6.62;100.00
9189;BME280;34313;50.780;6.084;2023-01-30T08:56:41;99765.13;;;6.59;100.00
9189;BME280;34313;50.780;6.084;2023-01-30T08:59:07;99778.97;;;6.63;100.00
9189;BME280;34313;50.780;6.084;2023-01-30T09:01:33;99787.16;;;6.77;100.00
9189;BME280;34313;50.780;6.084;2023-01-30T09:03:58;99776.34;;;7.09;100.00
9189;BME280;34313;50.780;6.084;2023-01-30T09:06:24;99770.94;;;7.34;100.00
9189;BME280;34313;50.780;6.084;2023-01-30T09:08:49;99772.72;;;7.76;100.00
9189;BME280;34313;50.780;6.084;2023-01-30T09:11:14;99764.72;;;7.79;100.00
9189;BME280;34313;50.780;6.084;2023-01-30T09:13:40;99769.69;;;7.65;100.00
9189;BME280;34313;50.780;6.084;2023-01-30T09:16:09;99756.13;;;7.75;100.00
9189;BME280;34313;50.780;6.084;2023-01-30T09:18:39;99756.78;;;8.01;100.00
9189;BME280;34313;50.780;6.084;2023-01-30T09:21:05;99770.56;;;8.25;98.61
9189;BME280;34313;50.780;6.084;2023-01-30T09:23:31;99773.28;;;8.44;96.78
9189;BME280;34313;50.780;6.084;2023-01-30T09:25:56;99786.63;;;8.78;94.34
9189;BME280;34313;50.780;6.084;2023-01-30T09:28:22;99772.34;;;8.83;92.44
9189;BME280;34313;50.780;6.084;2023-01-30T09:30:47;99779.47;;;9.00;91.63
9189;BME280;34313;50.780;6.084;2023-01-30T09:33:12;99778.38;;;9.04;90.57
9189;BME280;34313;50.780;6.084;2023-01-30T09:35:40;99780.38;;;9.36;89.12
9189;BME280;34313;50.780;6.084;2023-01-30T09:38:06;99791.84;;;9.35;87.36
9189;BME280;34313;50.780;6.084;2023-01-30T09:40:33;99791.53;;;9.41;86.33
9189;BME280;34313;50.780;6.084;2023-01-30T09:43:21;99798.28;;;9.46;85.39
9189;BME280;34313;50.780;6.084;2023-01-30T09:48:35;99822.34;;;9.20;83.66
9189;BME280;34313;50.780;6.084;2023-01-30T09:51:27;99820.34;;;9.44;82.62
9189;BME280;34313;50.780;6.084;2023-01-30T09:54:13;99806.97;;;9.49;82.29
9189;BME280;34313;50.780;6.084;2023-01-30T09:56:41;99807.22;;;9.61;82.17
9189;BME280;34313;50.780;6.084;2023-01-30T09:59:17;99808.69;;;9.67;81.58
9189;BME280;34313;50.780;6.084;2023-01-30T10:01:53;99806.59;;;9.74;81.39
9189;BME280;34313;50.780;6.084;2023-01-30T10:04:31;99817.81;;;9.77;81.04
9189;BME280;34313;50.780;6.084;2023-01-30T10:07:19;99813.09;;;10.36;79.46
9189;BME280;34313;50.780;6.084;2023-01-30T10:13:25;99800.91;;;10.67;76.00
9189;BME280;34313;50.780;6.084;2023-01-30T10:18:54;99805.78;;;10.59;75.46
9189;BME280;34313;50.780;6.084;2023-01-30T10:21:42;99798.09;;;10.54;75.90
9189;BME280;34313;50.780;6.084;2023-01-30T10:26:47;99809.22;;;9.74;75.88
9189;BME280;34313;50.780;6.084;2023-01-30T10:29:31;99826.47;;;9.62;77.94
9189;BME280;34313;50.780;6.084;2023-01-30T10:32:01;99824.25;;;9.35;79.39
9189;BME280;34313;50.780;6.084;2023-01-30T10:34:35;99826.34;;;9.65;78.16
9189;BME280;34313;50.780;6.084;2023-01-30T10:37:33;99824.47;;;9.84;76.66
9189;BME280;34313;50.780;6.084;2023-01-30T10:40:06;99822.63;;;10.04;75.88
9189;BME280;34313;50.780;6.084;2023-01-30T10:42:56;99815.50;;;10.06;74.35
9189;BME280;34313;50.780;6.084;2023-01-30T10:50:51;99809.59;;;10.18;72.58
9189;BME280;34313;50.780;6.084;2023-01-30T10:53:37;99825.09;;;10.42;71.39
9189;BME280;34313;50.780;6.084;2023-01-30T10:56:13;99823.91;;;10.30;72.00
9189;BME280;34313;50.780;6.084;2023-01-30T11:01:22;99819.94;;;9.52;74.66
9189;BME280;34313;50.780;6.084;2023-01-30T11:04:01;99818.81;;;9.02;76.65
9189;BME280;34313;50.780;6.084;2023-01-30T11:06:28;99822.09;;;9.07;77.51
9189;BME280;34313;50.780;6.084;2023-01-30T11:08:55;99827.09;;;8.94;77.61
9189;BME280;34313;50.780;6.084;2023-01-30T11:11:46;99832.81;;;8.64;79.10
9189;BME280;34313;50.780;6.084;2023-01-30T11:14:13;99843.72;;;8.55;79.74
9189;BME280;34313;50.780;6.084;2023-01-30T11:16:49;99828.44;;;8.44;80.12
9189;BME280;34313;50.780;6.084;2023-01-30T11:19:18;99833.44;;;8.50;79.16
9189;BME280;34313;50.780;6.084;2023-01-30T11:21:51;99831.03;;;8.65;78.86
9189;BME280;34313;50.780;6.084;2023-01-30T11:24:22;99819.13;;;8.77;78.09
9189;BME280;34313;50.780;6.084;2023-01-30T11:26:49;99824.78;;;9.05;77.75
9189;BME280;34313;50.780;6.084;2023-01-30T11:31:51;99838.44;;;9.33;74.51
9189;BME280;34313;50.780;6.084;2023-01-30T11:34:19;99811.50;;;9.27;73.97
9189;BME280;34313;50.780;6.084;2023-01-30T11:36:45;99833.88;;;9.36;73.89
9189;BME280;34313;50.780;6.084;2023-01-30T11:42:07;99822.50;;;9.53;72.65
9189;BME280;34313;50.780;6.084;2023-01-30T11:44:33;99847.31;;;9.30;72.84
9189;BME280;34313;50.780;6.084;2023-01-30T11:47:02;99838.38;;;8.96;73.13
9189;BME280;34313;50.780;6.084;2023-01-30T11:49:35;99832.69;;;9.05;73.71
9189;BME280;34313;50.780;6.084;2023-01-30T11:52:03;99832.75;;;9.04;72.91
9189;BME280;34313;50.780;6.084;2023-01-30T11:54:35;99828.97;;;9.09;72.94
9189;BME280;34313;50.780;6.084;2023-01-30T11:57:04;99838.56;;;9.11;72.51
9189;BME280;34313;50.780;6.084;2023-01-30T12:02:15;99832.22;;;9.34;71.63
9189;BME280;34313;50.780;6.084;2023-01-30T12:04:43;99847.81;;;9.19;71.75
9189;BME280;34313;50.780;6.084;2023-01-30T12:07:22;99849.38;;;9.04;72.90
9189;BME280;34313;50.780;6.084;2023-01-30T12:09:48;99854.66;;;8.85;73.39
9189;BME280;34313;50.780;6.084;2023-01-30T12:12:44;99856.25;;;8.69;73.32
9189;BME280;34313;50.780;6.084;2023-01-30T12:15:26;99851.28;;;8.63;73.98
9189;BME280;34313;50.780;6.084;2023-01-30T12:21:00;99857.38;;;8.22;75.57
9189;BME280;34313;50.780;6.084;2023-01-30T12:28:47;99836.56;;;7.97;76.34
9189;BME280;34313;50.780;6.084;2023-01-30T12:31:24;99841.03;;;7.95;76.73
9189;BME280;34313;50.780;6.084;2023-01-30T12:33:50;99843.81;;;7.90;77.10
9189;BME280;34313;50.780;6.084;2023-01-30T12:39:34;99837.78;;;7.88;77.90
9189;BME280;34313;50.780;6.084;2023-01-30T12:50:22;99845.94;;;7.82;80.52
9189;BME280;34313;50.780;6.084;2023-01-30T12:58:35;99851.78;;;7.89;80.22
9189;BME280;34313;50.780;6.084;2023-01-30T13:03:51;99865.94;;;7.85;79.28
9189;BME280;34313;50.780;6.084;2023-01-30T13:06:38;99872.19;;;7.82;78.44
9189;BME280;34313;50.780;6.084;2023-01-30T13:12:07;99864.31;;;7.82;79.46
9189;BME280;34313;50.780;6.084;2023-01-30T13:14:39;99873.75;;;7.86;78.58
9189;BME280;34313;50.780;6.084;2023-01-30T13:22:53;99865.34;;;8.21;77.13
9189;BME280;34313;50.780;6.084;2023-01-30T13:25:25;99869.34;;;8.29;77.28
9189;BME280;34313;50.780;6.084;2023-01-30T13:27:56;99863.22;;;8.29;76.57
9189;BME280;34313;50.780;6.084;2023-01-30T13:30:23;99866.19;;;8.21;76.66
9189;BME280;34313;50.780;6.084;2023-01-30T13:32:55;99875.69;;;8.03;78.90
9189;BME280;34313;50.780;6.084;2023-01-30T13:35:26;99869.59;;;8.23;79.15
9189;BME280;34313;50.780;6.084;2023-01-30T13:37:54;99882.31;;;8.32;79.32
9189;BME280;34313;50.780;6.084;2023-01-30T13:40:24;99884.09;;;8.32;79.21
9189;BME280;34313;50.780;6.084;2023-01-30T13:43:04;99896.16;;;8.36;78.25
9189;BME280;34313;50.780;6.084;2023-01-30T13:45:36;99897.94;;;8.36;77.04
9189;BME280;34313;50.780;6.084;2023-01-30T13:50:51;99911.72;;;8.00;76.98
9189;BME280;34313;50.780;6.084;2023-01-30T13:55:56;99915.19;;;8.00;77.05
9189;BME280;34313;50.780;6.084;2023-01-30T13:58:54;99917.69;;;8.03;77.26
9189;BME280;34313;50.780;6.084;2023-01-30T14:01:23;99927.25;;;8.04;76.62
9189;BME280;34313;50.780;6.084;2023-01-30T14:03:52;99922.94;;;8.03;77.08
9189;BME280;34313;50.780;6.084;2023-01-30T14:06:32;99923.41;;;8.13;76.25
9189;BME280;34313;50.780;6.084;2023-01-30T14:09:04;99926.63;;;8.20;76.51
9189;BME280;34313;50.780;6.084;2023-01-30T14:11:47;99936.22;;;8.21;75.15
9189;BME280;34313;50.780;6.084;2023-01-30T14:16:50;99934.00;;;8.32;75.42
9189;BME280;34313;50.780;6.084;2023-01-30T14:21:55;99942.94;;;8.28;73.23
9189;BME280;34313;50.780;6.084;2023-01-30T14:24:22;99953.28;;;8.10;72.64
9189;BME280;34313;50.780;6.084;2023-01-30T14:34:41;99971.59;;;7.90;72.67
9189;BME280;34313;50.780;6.084;2023-01-30T14:45:49;99994.00;;;7.99;72.09
9189;BME280;34313;50.780;6.084;2023-01-30T14:48:38;99988.66;;;7.78;72.13
9189;BME280;34313;50.780;6.084;2023-01-30T14:51:43;99996.38;;;7.83;72.26
9189;BME280;34313;50.780;6.084;2023-01-30T15:02:03;100030.66;;;7.78;69.47
9189;BME280;34313;50.780;6.084;2023-01-30T15:06:58;100041.97;;;7.56;70.59
9189;BME280;34313;50.780;6.084;2023-01-30T15:09:27;100042.84;;;7.55;70.16
9189;BME280;34313;50.780;6.084;2023-01-30T15:14:57;100047.66;;;7.44;70.90
9189;BME280;34313;50.780;6.084;2023-01-30T15:17:51;100044.00;;;7.48;71.53
9189;BME280;34313;50.780;6.084;2023-01-30T15:20:42;100041.31;;;7.50;71.67
9189;BME280;34313;50.780;6.084;2023-01-30T15:23:14;100061.63;;;7.45;71.74
9189;BME280;34313;50.780;6.084;2023-01-30T15:26:06;100069.94;;;7.32;72.42
9189;BME280;34313;50.780;6.084;2023-01-30T15:31:21;100081.09;;;7.14;73.90
9189;BME280;34313;50.780;6.084;2023-01-30T15:33:53;100086.19;;;6.92;74.88
9189;BME280;34313;50.780;6.084;2023-01-30T15:36:25;100085.81;;;7.03;79.44
9189;BME280;34313;50.780;6.084;2023-01-30T15:38:56;100091.38;;;6.93;79.61
9189;BME280;34313;50.780;6.084;2023-01-30T15:41:22;100094.41;;;6.81;79.79
9189;BME280;34313;50.780;6.084;2023-01-30T15:52:03;100093.56;;;6.80;78.66
9189;BME280;34313;50.780;6.084;2023-01-30T15:54:29;100107.44;;;6.84;78.26